LOWG/GRZ METAR and TAF weather

Enter ICAO airport designator
Station Type Date Time Source
LOWG METAR 2021/07/28 04:20 UTC NOAA

LOWG 280420Z VRB01KT CAVOK 18/15 Q1014 TEMPO 22010KT


Station Type Date Time Source
LOWG Decoded METAR 2021/07/28 04:20 UTC NOAA

Graz-Thalerhof-Flughafen, Austria (LOWG) 47-00N 015-26E 347M
Jul 28, 2021 - 12:20 AM EDT / 2021.07.28 0420 UTC
Wind: Variable at 1 MPH (1 KT):0
Visibility: greater than 7 mile(s):0
Temperature: 64 F (18 C)
Dew Point: 59 F (15 C)
Relative Humidity: 82%
Pressure (altimeter): 29.94 in. Hg (1014 hPa)
ob: LOWG 280420Z VRB01KT CAVOK 18/15 Q1014 TEMPO 22010KT
cycle: 4

Station Type Date Time Source
LOWG TAF 2021/07/28 00:54 UTC NOAA

TAF TAF
AMD LOWG 280043Z 2800/2824 VRB04KT CAVOK TX30/2813Z TN18/2803Z
TEMPO 2800/2802 -RA
TEMPO 2809/2817 15008KT
TEMPO 2813/2823 FEW050CB

Example: see airport list